Time;durP1;ratioP1;P1;durP2;ratioP2;P2;SDS_P1;SDS_P2;PMS_P1;PMS_P2;Temp;Humidity;BMP_temperature;BMP_pressure;BME280_temperature;BME280_humidity;BME280_pressure;Samples;Min_cycle;Max_cycle;Signal;HPM_P1;HPM_P2
2023/04/21 00:00:55;;;;;;;23.15;13.45;;;10.70;99.90;;;;;;5103140;27;20575;-88
2023/04/21 00:03:22;;;;;;;25.13;13.35;;;10.60;99.90;;;;;;5107349;27;20496;-88
2023/04/21 00:05:49;;;;;;;20.33;12.52;;;10.60;99.90;;;;;;5121285;27;20571;-88
2023/04/21 00:08:16;;;;;;;20.33;12.52;;;10.60;99.90;;;;;;5108113;27;20031;-88
2023/04/21 00:10:41;;;;;;;20.75;13.60;;;10.60;99.90;;;;;;5107361;27;20031;-88
2023/04/21 00:13:07;;;;;;;19.70;12.18;;;10.60;99.90;;;;;;5108468;27;20437;-88
2023/04/21 00:15:33;;;;;;;21.70;12.88;;;10.60;99.90;;;;;;5101892;27;20476;-88
2023/04/21 00:17:59;;;;;;;19.13;11.60;;;10.50;99.90;;;;;;5102618;27;20142;-89
2023/04/21 00:20:25;;;;;;;21.52;12.32;;;10.50;99.90;;;;;;5076503;28;20127;-87
2023/04/21 00:22:55;;;;;;;24.70;14.90;;;10.50;99.90;;;;;;5101051;27;20054;-88
2023/04/21 00:25:22;;;;;;;21.42;12.38;;;10.50;99.90;;;;;;5094360;28;20043;-88
2023/04/21 00:27:47;;;;;;;21.65;12.65;;;10.50;99.90;;;;;;5094046;28;20043;-88
2023/04/21 00:30:13;;;;;;;21.83;11.75;;;10.50;99.90;;;;;;5102137;28;20044;-88
2023/04/21 00:32:39;;;;;;;20.38;12.13;;;10.50;99.90;;;;;;5093895;28;20081;-88
2023/04/21 00:35:05;;;;;;;23.90;12.82;;;10.50;99.90;;;;;;5089861;27;20035;-88
2023/04/21 00:37:30;;;;;;;19.75;12.07;;;10.50;99.90;;;;;;5114369;27;20043;-88
2023/04/21 00:39:57;;;;;;;20.35;11.07;;;10.40;99.90;;;;;;5113762;27;20031;-88
2023/04/21 00:42:23;;;;;;;19.27;11.70;;;10.40;99.90;;;;;;5096949;27;20480;-88
2023/04/21 00:44:49;;;;;;;21.83;11.57;;;10.40;99.90;;;;;;5096912;27;20441;-87
2023/04/21 00:47:15;;;;;;;19.33;11.80;;;10.40;99.90;;;;;;5113518;27;20480;-88
2023/04/21 00:49:41;;;;;;;17.98;11.50;;;10.40;99.90;;;;;;5113487;27;20095;-88
2023/04/21 00:52:07;;;;;;;20.13;11.95;;;10.40;99.90;;;;;;5096149;27;20117;-88
2023/04/21 00:54:35;;;;;;;19.60;11.90;;;10.40;99.90;;;;;;5113138;27;20066;-88
2023/04/21 00:57:01;;;;;;;17.30;10.82;;;10.40;99.90;;;;;;5114017;27;20046;-88
2023/04/21 00:59:26;;;;;;;20.27;11.30;;;10.40;99.90;;;;;;5112703;27;20044;-88
2023/04/21 01:01:52;;;;;;;18.58;11.57;;;10.40;99.90;;;;;;5113632;27;20035;-88
2023/04/21 01:04:18;;;;;;;19.42;10.13;;;10.30;99.90;;;;;;5113194;27;20031;-88
2023/04/21 01:06:44;;;;;;;18.50;10.82;;;10.30;99.90;;;;;;5113008;27;20488;-88
2023/04/21 01:09:12;;;;;;;19.10;10.65;;;10.30;99.90;;;;;;5113413;27;20042;-88
2023/04/21 01:11:38;;;;;;;23.20;10.93;;;10.30;99.90;;;;;;5075831;28;20047;-88
2023/04/21 01:14:04;;;;;;;19.85;11.02;;;10.30;99.90;;;;;;5076156;28;20052;-88
2023/04/21 01:16:33;;;;;;;18.30;11.30;;;10.30;99.90;;;;;;5075760;28;20035;-88
2023/04/21 01:19:00;;;;;;;16.38;10.32;;;10.30;99.90;;;;;;5109889;27;20528;-94
2023/04/21 01:21:27;;;;;;;20.98;10.10;;;10.30;99.90;;;;;;5096336;27;20042;-93
2023/04/21 01:23:53;;;;;;;19.73;10.10;;;10.30;99.90;;;;;;5082398;28;20039;-94
2023/04/21 01:26:20;;;;;;;17.63;9.95;;;10.30;99.90;;;;;;5094233;28;20032;-94
2023/04/21 01:28:47;;;;;;;15.27;9.13;;;10.30;99.90;;;;;;5102069;27;20039;-92
2023/04/21 01:31:14;;;;;;;17.30;10.02;;;10.30;99.90;;;;;;5113762;27;20043;-93
2023/04/21 01:33:40;;;;;;;17.98;9.88;;;10.30;99.90;;;;;;5096652;27;20080;-93
2023/04/21 01:36:07;;;;;;;17.30;9.88;;;10.30;99.90;;;;;;5113577;27;20510;-93
2023/04/21 01:38:32;;;;;;;19.25;9.98;;;10.30;99.90;;;;;;5113799;27;20035;-93
2023/04/21 01:40:58;;;;;;;17.40;9.98;;;10.30;99.90;;;;;;5112355;27;20079;-93
2023/04/21 01:43:24;;;;;;;19.00;9.90;;;10.20;99.90;;;;;;5113918;28;20444;-94
2023/04/21 01:45:51;;;;;;;16.73;9.88;;;10.30;99.90;;;;;;5097039;27;20031;-94
2023/04/21 01:48:16;;;;;;;21.00;10.52;;;10.30;99.90;;;;;;5080197;28;20035;-92
2023/04/21 01:50:42;;;;;;;15.80;9.57;;;10.30;99.90;;;;;;5096298;28;20035;-92
2023/04/21 01:53:08;;;;;;;20.27;10.32;;;10.30;99.90;;;;;;5096265;27;20027;-93
2023/04/21 01:55:33;;;;;;;18.65;10.20;;;10.30;99.90;;;;;;5113770;28;20082;-93
2023/04/21 01:57:59;;;;;;;22.20;10.35;;;10.30;99.90;;;;;;5096572;28;20516;-92
2023/04/21 02:00:25;;;;;;;15.98;9.32;;;10.30;99.90;;;;;;5101479;28;20512;-93
2023/04/21 02:02:51;;;;;;;15.15;9.35;;;10.30;99.90;;;;;;5076767;28;20040;-93
2023/04/21 02:05:17;;;;;;;22.85;9.77;;;10.30;99.90;;;;;;5084752;28;20489;-93
2023/04/21 02:07:43;;;;;;;19.33;9.25;;;10.30;99.90;;;;;;5093052;28;20050;-93
2023/04/21 02:10:09;;;;;;;19.85;9.88;;;10.30;99.90;;;;;;5086965;28;20042;-93
2023/04/21 02:12:35;;;;;;;18.83;9.35;;;10.30;99.90;;;;;;5113686;28;20127;-93
2023/04/21 02:15:00;;;;;;;18.25;9.32;;;10.30;99.90;;;;;;5113813;28;20080;-92
2023/04/21 02:17:26;;;;;;;20.30;9.45;;;10.30;99.90;;;;;;5095030;28;20480;-94
2023/04/21 02:19:52;;;;;;;19.25;8.48;;;10.30;99.90;;;;;;5115643;27;20035;-93
2023/04/21 02:22:17;;;;;;;16.10;9.45;;;10.30;99.90;;;;;;5100580;27;20570;-93
2023/04/21 02:24:43;;;;;;;14.23;8.48;;;10.30;99.90;;;;;;5117564;27;20460;-94
2023/04/21 02:27:08;;;;;;;18.00;9.55;;;10.30;99.90;;;;;;5117775;27;20038;-93
2023/04/21 02:29:34;;;;;;;14.57;8.27;;;10.30;99.90;;;;;;5116976;27;20484;-93
2023/04/21 02:32:00;;;;;;;15.50;8.38;;;10.30;99.90;;;;;;5117547;27;20103;-93
2023/04/21 02:34:25;;;;;;;17.75;8.38;;;10.30;99.90;;;;;;5100424;27;20495;-94
2023/04/21 02:36:51;;;;;;;20.75;8.55;;;10.30;99.90;;;;;;5100463;27;20047;-93
2023/04/21 02:39:16;;;;;;;18.27;8.50;;;10.30;99.90;;;;;;5100023;27;20039;-93
2023/04/21 02:41:42;;;;;;;16.25;8.75;;;10.30;99.90;;;;;;5081765;28;20035;-93
2023/04/21 02:44:08;;;;;;;15.02;8.35;;;10.30;99.90;;;;;;5080178;28;20044;-93
2023/04/21 02:46:33;;;;;;;15.82;8.35;;;10.30;99.90;;;;;;5099616;27;20035;-94
2023/04/21 02:48:59;;;;;;;13.32;7.60;;;10.30;99.90;;;;;;5117536;27;20035;-92
2023/04/21 02:51:24;;;;;;;12.95;7.57;;;10.30;99.90;;;;;;5091518;28;20035;-93
2023/04/21 02:53:50;;;;;;;17.30;7.75;;;10.30;99.90;;;;;;5080148;28;20050;-94
2023/04/21 02:56:15;;;;;;;15.88;7.82;;;10.30;99.90;;;;;;5096626;28;20080;-92
2023/04/21 02:58:41;;;;;;;18.33;8.52;;;10.30;99.90;;;;;;5115638;27;20047;-92
2023/04/21 03:01:07;;;;;;;20.33;8.95;;;10.30;99.90;;;;;;5099795;27;20498;-93
2023/04/21 03:03:32;;;;;;;14.65;8.00;;;10.30;99.90;;;;;;5115586;27;20047;-93
2023/04/21 03:06:00;;;;;;;14.57;7.70;;;10.30;99.90;;;;;;5099841;27;20088;-94
2023/04/21 03:08:25;;;;;;;14.00;7.75;;;10.30;99.90;;;;;;5116250;27;20049;-93
2023/04/21 03:10:51;;;;;;;14.05;8.05;;;10.30;99.90;;;;;;5107910;28;20036;-91
2023/04/21 03:13:17;;;;;;;13.63;7.97;;;10.30;99.90;;;;;;5079710;28;20416;-92
2023/04/21 03:15:42;;;;;;;13.18;7.72;;;10.30;99.90;;;;;;5097384;27;20036;-93
2023/04/21 03:18:08;;;;;;;14.93;8.35;;;10.30;99.90;;;;;;5098738;27;20107;-93
2023/04/21 03:20:34;;;;;;;15.50;7.63;;;10.30;99.90;;;;;;5116322;27;20347;-93
2023/04/21 03:22:59;;;;;;;18.10;8.02;;;10.30;99.90;;;;;;5115817;27;20027;-92
2023/04/21 03:25:26;;;;;;;18.50;7.75;;;10.30;99.90;;;;;;5116721;27;20069;-94
2023/04/21 03:27:53;;;;;;;16.90;8.52;;;10.30;99.90;;;;;;5098911;27;20072;-93
2023/04/21 03:30:19;;;;;;;12.73;7.00;;;10.30;99.90;;;;;;5098910;27;20087;-93
2023/04/21 03:32:44;;;;;;;14.55;8.50;;;10.30;99.90;;;;;;5116335;27;20118;-93
2023/04/21 03:35:10;;;;;;;13.52;8.15;;;10.30;99.90;;;;;;5089161;28;20082;-94
2023/04/21 03:37:36;;;;;;;13.80;7.55;;;10.30;99.90;;;;;;5096099;28;20071;-93
2023/04/21 03:40:06;;;;;;;15.65;7.93;;;10.30;99.90;;;;;;5098309;27;20473;-94
2023/04/21 03:42:32;;;;;;;15.02;8.10;;;10.40;99.90;;;;;;5116401;27;20035;-93
2023/04/21 03:45:06;;;;;;;16.50;7.85;;;10.30;99.90;;;;;;5116756;27;20083;-94
2023/04/21 03:47:31;;;;;;;16.77;7.82;;;10.40;99.90;;;;;;5114857;27;20063;-94
2023/04/21 03:49:57;;;;;;;14.35;8.07;;;10.30;99.90;;;;;;5079272;28;20031;-93
2023/04/21 03:52:23;;;;;;;17.40;7.47;;;10.30;99.90;;;;;;5078616;28;20063;-93
2023/04/21 03:54:49;;;;;;;14.07;8.40;;;10.30;99.90;;;;;;5090058;27;20555;-93
2023/04/21 03:57:15;;;;;;;13.60;7.90;;;10.30;99.90;;;;;;5098485;27;20039;-93
2023/04/21 03:59:41;;;;;;;17.95;8.15;;;10.30;99.90;;;;;;5097916;27;20031;-92
2023/04/21 04:02:06;;;;;;;16.05;8.75;;;10.30;99.90;;;;;;5098028;27;20176;-93
2023/04/21 04:04:32;;;;;;;17.10;8.63;;;10.30;99.90;;;;;;5116001;27;20039;-93
2023/04/21 04:06:58;;;;;;;17.27;8.50;;;10.30;99.90;;;;;;5115199;27;20031;-93
2023/04/21 04:09:24;;;;;;;14.30;8.05;;;10.30;99.90;;;;;;5098690;27;20050;-94
2023/04/21 04:11:49;;;;;;;17.23;8.05;;;10.30;99.90;;;;;;5114959;27;20043;-93
2023/04/21 04:14:15;;;;;;;14.52;7.68;;;10.30;99.90;;;;;;5082034;28;20126;-93
2023/04/21 04:16:41;;;;;;;13.18;8.10;;;10.30;99.90;;;;;;5095557;28;20045;-93
2023/04/21 04:19:07;;;;;;;17.40;7.97;;;10.30;99.90;;;;;;5096925;27;20404;-94
2023/04/21 04:21:33;;;;;;;14.02;8.05;;;10.30;99.90;;;;;;5098254;27;20042;-93
2023/04/21 04:24:01;;;;;;;16.90;7.82;;;10.30;99.90;;;;;;5098769;27;20047;-93
2023/04/21 04:26:27;;;;;;;16.02;7.93;;;10.30;99.90;;;;;;5098333;27;20046;-94
2023/04/21 04:28:55;;;;;;;16.30;8.77;;;10.30;99.90;;;;;;5098228;27;20047;-94
2023/04/21 04:31:24;;;;;;;15.75;8.27;;;10.30;99.90;;;;;;5114504;27;20042;-93
2023/04/21 04:33:50;;;;;;;14.50;7.70;;;10.30;99.90;;;;;;5098003;27;20080;-94
2023/04/21 04:36:16;;;;;;;13.88;7.57;;;10.20;99.90;;;;;;5097691;27;20096;-93
2023/04/21 04:38:41;;;;;;;14.30;7.72;;;10.20;99.90;;;;;;5078396;28;20039;-94
2023/04/21 04:41:07;;;;;;;13.93;7.68;;;10.20;99.90;;;;;;5077031;28;20085;-93
2023/04/21 04:43:35;;;;;;;14.43;7.53;;;10.20;99.90;;;;;;5111930;27;20039;-93
2023/04/21 04:46:05;;;;;;;15.00;7.85;;;10.20;99.90;;;;;;5115120;27;20043;-93
2023/04/21 04:48:31;;;;;;;14.00;7.32;;;10.20;99.90;;;;;;5096486;27;20040;-92
2023/04/21 04:50:56;;;;;;;15.15;7.35;;;10.20;99.90;;;;;;5114458;27;20125;-93
2023/04/21 04:53:22;;;;;;;14.82;8.30;;;10.20;99.90;;;;;;5115414;27;20074;-93
2023/04/21 04:55:48;;;;;;;15.30;7.63;;;10.20;99.90;;;;;;5097155;27;20568;-93
2023/04/21 04:58:13;;;;;;;16.20;8.60;;;10.10;99.90;;;;;;5101154;27;20035;-92
2023/04/21 05:00:39;;;;;;;14.15;7.85;;;10.20;99.90;;;;;;5120907;27;20179;-93
2023/04/21 05:03:05;;;;;;;16.80;8.45;;;10.10;99.90;;;;;;5094041;28;20036;-94
2023/04/21 05:05:31;;;;;;;13.70;7.35;;;10.20;99.90;;;;;;5081923;27;20046;-93
2023/04/21 05:07:56;;;;;;;20.05;8.95;;;10.20;99.90;;;;;;5097094;27;20038;-93
2023/04/21 05:10:22;;;;;;;13.18;7.82;;;10.20;99.90;;;;;;5098407;27;20043;-94
2023/04/21 05:12:48;;;;;;;17.35;8.35;;;10.10;99.90;;;;;;5097850;27;20039;-93
2023/04/21 05:15:16;;;;;;;17.45;8.15;;;10.20;99.90;;;;;;5114872;27;20043;-94
2023/04/21 05:17:41;;;;;;;15.27;7.82;;;10.20;99.90;;;;;;5093413;28;20122;-95
2023/04/21 05:20:07;;;;;;;12.88;7.57;;;10.20;99.90;;;;;;5077659;28;20095;-95
2023/04/21 05:22:37;;;;;;;13.05;7.43;;;10.20;99.90;;;;;;5077532;28;20046;-94
2023/04/21 05:25:04;;;;;;;13.85;7.82;;;10.20;99.90;;;;;;5097819;27;20037;-93
2023/04/21 05:27:30;;;;;;;13.60;8.20;;;10.30;99.90;;;;;;5114905;27;20470;-94
2023/04/21 05:29:55;;;;;;;14.35;6.97;;;10.30;99.90;;;;;;5105079;27;20122;-94
2023/04/21 05:32:21;;;;;;;14.95;7.85;;;10.30;99.90;;;;;;5119080;27;20114;-94
2023/04/21 05:34:46;;;;;;;15.88;7.65;;;10.30;99.90;;;;;;5115137;27;20074;-94
2023/04/21 05:37:12;;;;;;;13.63;7.43;;;10.40;99.90;;;;;;5097796;27;20031;-93
2023/04/21 05:39:38;;;;;;;11.77;6.90;;;10.40;99.90;;;;;;5081428;27;20515;-94
2023/04/21 05:42:03;;;;;;;14.05;7.60;;;10.40;99.90;;;;;;5117147;27;20042;-93
2023/04/21 05:44:29;;;;;;;12.48;7.68;;;10.40;99.90;;;;;;5090407;28;20031;-95
2023/04/21 05:46:55;;;;;;;14.27;7.75;;;10.50;99.90;;;;;;5114323;27;20102;-95
2023/04/21 05:49:20;;;;;;;15.00;7.10;;;10.50;99.90;;;;;;5113749;28;20085;-93
2023/04/21 05:51:46;;;;;;;14.93;7.65;;;10.50;99.90;;;;;;5096410;27;20525;-93
2023/04/21 05:54:12;;;;;;;11.38;7.38;;;10.60;99.90;;;;;;5096055;28;20087;-93
2023/04/21 05:56:37;;;;;;;14.02;7.60;;;10.60;99.90;;;;;;5096602;28;20050;-93
2023/04/21 05:59:05;;;;;;;17.67;7.68;;;10.70;99.90;;;;;;5096819;28;20039;-94
2023/04/21 06:01:31;;;;;;;15.38;6.72;;;10.70;99.90;;;;;;5112753;28;20047;-94
2023/04/21 06:03:57;;;;;;;13.65;6.80;;;10.70;99.90;;;;;;5100442;28;20035;-93
2023/04/21 06:06:25;;;;;;;16.50;7.82;;;10.80;99.90;;;;;;5093738;28;20036;-93
2023/04/21 06:08:50;;;;;;;13.18;7.70;;;10.80;99.90;;;;;;5074350;28;20088;-93
2023/04/21 06:11:16;;;;;;;15.52;7.20;;;10.90;99.90;;;;;;5093414;28;20039;-93
2023/04/21 06:13:41;;;;;;;17.05;7.40;;;10.90;99.90;;;;;;5091138;27;20126;-91
2023/04/21 06:16:07;;;;;;;16.63;7.43;;;11.00;99.90;;;;;;5102538;27;20042;-92
2023/04/21 06:18:32;;;;;;;14.95;7.32;;;11.10;99.90;;;;;;5122678;27;20389;-93
2023/04/21 06:20:58;;;;;;;14.00;7.20;;;11.10;99.90;;;;;;5104399;27;20038;-93
2023/04/21 06:23:24;;;;;;;14.35;7.50;;;11.10;99.90;;;;;;5123125;27;20113;-93
2023/04/21 06:26:02;;;;;;;14.55;6.95;;;11.20;99.90;;;;;;5105599;27;20034;-93
2023/04/21 06:28:28;;;;;;;14.07;6.82;;;11.30;99.90;;;;;;5106897;27;20122;-92
2023/04/21 06:30:54;;;;;;;15.38;7.15;;;11.30;99.90;;;;;;5133615;27;20658;-93
2023/04/21 06:33:19;;;;;;;14.70;7.28;;;11.30;99.90;;;;;;5097055;28;20042;-93
2023/04/21 06:35:45;;;;;;;16.63;7.13;;;11.40;99.90;;;;;;5096228;28;20043;-92
2023/04/21 06:38:10;;;;;;;14.00;7.15;;;11.50;99.90;;;;;;5096716;28;20067;-92
2023/04/21 06:40:36;;;;;;;15.90;7.47;;;11.50;99.90;;;;;;5123116;27;20487;-92
2023/04/21 06:43:02;;;;;;;14.93;6.82;;;11.50;99.90;;;;;;5116290;27;20140;-93
2023/04/21 06:45:27;;;;;;;13.85;7.03;;;11.60;99.90;;;;;;5093069;28;20118;-92
2023/04/21 06:47:53;;;;;;;17.35;7.82;;;11.60;99.90;;;;;;5092331;28;20039;-93
2023/04/21 06:50:18;;;;;;;16.35;8.43;;;11.70;99.90;;;;;;5076716;28;20043;-92
2023/04/21 06:52:44;;;;;;;17.67;7.30;;;11.70;99.90;;;;;;5112840;28;20568;-92
2023/04/21 06:55:10;;;;;;;15.88;6.88;;;11.70;99.90;;;;;;5095031;28;20099;-92
2023/04/21 06:57:36;;;;;;;18.27;7.95;;;11.80;99.90;;;;;;5091697;28;20035;-92
2023/04/21 07:00:04;;;;;;;12.13;6.95;;;11.80;99.90;;;;;;5075723;28;20050;-92
2023/04/21 07:02:30;;;;;;;13.10;7.13;;;11.90;99.90;;;;;;5092335;28;20031;-93
2023/04/21 07:04:55;;;;;;;16.73;6.90;;;11.90;99.90;;;;;;5092928;27;20031;-92
2023/04/21 07:07:21;;;;;;;14.63;7.45;;;12.00;99.90;;;;;;5116687;27;20098;-92
2023/04/21 07:09:47;;;;;;;16.65;8.13;;;12.00;99.90;;;;;;5115558;27;20167;-93
2023/04/21 07:12:13;;;;;;;10.73;6.53;;;12.10;99.90;;;;;;5115392;27;20047;-93
2023/04/21 07:14:38;;;;;;;14.85;7.30;;;12.10;99.90;;;;;;5115698;27;20522;-93
2023/04/21 07:17:04;;;;;;;15.25;7.75;;;12.10;99.90;;;;;;5116020;27;20054;-93
2023/04/21 07:19:30;;;;;;;15.00;8.02;;;12.20;99.90;;;;;;5078499;28;20069;-93
2023/04/21 07:21:57;;;;;;;14.18;7.22;;;12.20;99.90;;;;;;5079338;28;20039;-92
2023/04/21 07:24:22;;;;;;;17.90;7.63;;;12.30;99.90;;;;;;5078288;28;20042;-93
2023/04/21 07:26:48;;;;;;;14.25;7.60;;;12.30;99.90;;;;;;5079108;28;20035;-93
2023/04/21 07:29:14;;;;;;;14.52;7.50;;;12.40;99.90;;;;;;5113092;27;20035;-93
2023/04/21 07:31:39;;;;;;;17.25;7.65;;;12.40;99.90;;;;;;5115818;27;20040;-92
2023/04/21 07:34:05;;;;;;;14.40;7.25;;;12.50;99.90;;;;;;5098418;27;20039;-92
2023/04/21 07:36:31;;;;;;;13.43;6.97;;;12.50;99.90;;;;;;5098496;27;20070;-93
2023/04/21 07:38:56;;;;;;;15.13;8.07;;;12.60;99.90;;;;;;5115441;27;20500;-93
2023/04/21 07:41:22;;;;;;;16.63;8.07;;;12.70;99.90;;;;;;5106160;27;20035;-93
2023/04/21 07:43:48;;;;;;;16.52;8.05;;;12.70;99.90;;;;;;5098350;27;20046;-93
2023/04/21 07:46:13;;;;;;;14.63;7.90;;;12.80;99.90;;;;;;5093140;28;20036;-92
2023/04/21 07:48:39;;;;;;;12.77;7.22;;;12.80;99.90;;;;;;5077432;28;20513;-93
2023/04/21 07:51:05;;;;;;;13.38;7.78;;;12.90;99.90;;;;;;5077423;28;20048;-93
2023/04/21 07:53:31;;;;;;;15.02;7.97;;;13.00;99.90;;;;;;5086639;28;20267;-92
2023/04/21 07:55:57;;;;;;;16.90;10.23;;;13.10;99.90;;;;;;5078671;28;20040;-93
2023/04/21 07:58:23;;;;;;;15.07;7.22;;;13.20;99.90;;;;;;5082176;27;20518;-92
2023/04/21 08:00:49;;;;;;;16.10;8.15;;;13.30;99.90;;;;;;5082489;28;20118;-93
2023/04/21 08:03:15;;;;;;;13.68;8.18;;;13.30;99.90;;;;;;5094763;28;20050;-94
2023/04/21 08:05:41;;;;;;;15.45;9.85;;;13.30;99.90;;;;;;5095636;27;20061;-94
2023/04/21 08:08:06;;;;;;;15.20;8.10;;;13.50;99.90;;;;;;5106493;27;20056;-94
2023/04/21 08:10:32;;;;;;;16.73;8.07;;;13.50;99.90;;;;;;5124573;27;20042;-93
2023/04/21 08:12:58;;;;;;;15.02;7.97;;;13.50;99.90;;;;;;5116364;27;20039;-94
2023/04/21 08:15:24;;;;;;;13.25;8.35;;;13.60;99.90;;;;;;5126317;27;20038;-93
2023/04/21 08:17:50;;;;;;;15.07;7.63;;;13.60;99.90;;;;;;5092179;27;20118;-93
2023/04/21 08:20:16;;;;;;;16.58;8.68;;;13.70;99.90;;;;;;5097918;27;20665;-93
2023/04/21 08:22:41;;;;;;;18.20;10.55;;;13.80;99.90;;;;;;5114209;27;20122;-93
2023/04/21 08:25:07;;;;;;;18.25;10.85;;;14.00;99.90;;;;;;5114395;27;20035;-93
2023/04/21 08:27:36;;;;;;;16.23;8.50;;;14.10;99.90;;;;;;5115470;27;20050;-93
2023/04/21 08:30:01;;;;;;;13.38;7.63;;;14.20;99.90;;;;;;5086001;28;20069;-93
2023/04/21 08:32:27;;;;;;;15.77;8.32;;;14.30;99.90;;;;;;5083067;27;20471;-93
2023/04/21 08:34:53;;;;;;;12.60;8.55;;;14.30;99.90;;;;;;5090946;28;20035;-95
2023/04/21 08:37:20;;;;;;;16.40;10.70;;;14.40;99.90;;;;;;5077589;28;20032;-93
2023/04/21 08:39:46;;;;;;;20.08;10.50;;;14.50;99.90;;;;;;5127930;27;20115;-93
2023/04/21 08:42:16;;;;;;;19.65;9.18;;;14.70;99.90;;;;;;5131127;27;20046;-93
2023/04/21 08:44:42;;;;;;;17.10;9.75;;;14.70;99.90;;;;;;5096370;27;20031;-94
2023/04/21 08:47:10;;;;;;;14.55;8.95;;;14.80;99.90;;;;;;5096606;27;20031;-93
2023/04/21 08:49:37;;;;;;;17.48;8.18;;;14.90;99.90;;;;;;5097500;27;20043;-93
2023/04/21 08:52:03;;;;;;;16.25;10.93;;;15.10;99.90;;;;;;5114945;27;20039;-93
2023/04/21 08:54:29;;;;;;;16.75;10.90;;;15.30;99.10;;;;;;5089480;28;20063;-93
2023/04/21 08:56:56;;;;;;;16.52;9.63;;;15.50;96.90;;;;;;5077613;28;20396;-94
2023/04/21 08:59:21;;;;;;;16.35;9.10;;;15.60;94.50;;;;;;5082362;27;20122;-93
2023/04/21 09:02:13;;;;;;;15.95;11.38;;;15.60;94.90;;;;;;5093716;28;20225;-93
2023/04/21 09:04:41;;;;;;;21.02;11.00;;;15.70;94.60;;;;;;5093078;28;20042;-92
2023/04/21 09:07:07;;;;;;;15.10;8.27;;;15.70;92.70;;;;;;5082620;28;20039;-93
2023/04/21 09:09:50;;;;;;;15.75;10.23;;;15.70;92.70;;;;;;5093849;27;20497;-94
2023/04/21 09:12:16;;;;;;;19.73;8.60;;;15.80;92.00;;;;;;5096673;27;20465;-94
2023/04/21 09:14:42;;;;;;;19.40;10.48;;;15.80;92.50;;;;;;5113936;27;20054;-94
2023/04/21 09:17:08;;;;;;;16.02;10.70;;;15.90;92.40;;;;;;5095622;27;20408;-94
2023/04/21 09:19:33;;;;;;;15.88;8.73;;;15.90;91.50;;;;;;5103713;27;20039;-94
2023/04/21 09:22:00;;;;;;;18.30;10.85;;;16.10;91.70;;;;;;5113883;27;20442;-94
2023/04/21 09:24:26;;;;;;;16.38;10.13;;;16.20;91.20;;;;;;5095427;27;20399;-93
2023/04/21 09:26:53;;;;;;;17.58;9.93;;;16.40;90.70;;;;;;5096609;27;20551;-94
2023/04/21 09:29:25;;;;;;;17.40;9.57;;;16.50;89.90;;;;;;5096552;27;20084;-93
2023/04/21 09:31:51;;;;;;;17.80;11.20;;;16.70;89.90;;;;;;5096663;27;20057;-94
2023/04/21 09:34:23;;;;;;;18.40;9.65;;;16.80;86.50;;;;;;5096313;27;20496;-93
2023/04/21 09:37:02;;;;;;;16.13;9.90;;;16.80;84.80;;;;;;5095696;27;20031;-94
2023/04/21 09:39:30;;;;;;;14.27;10.35;;;16.80;85.00;;;;;;5093140;28;20036;-94
2023/04/21 09:41:57;;;;;;;16.70;10.98;;;16.90;85.20;;;;;;5076082;28;20081;-94
2023/04/21 09:44:26;;;;;;;15.98;10.20;;;17.10;85.40;;;;;;5095107;27;20145;-95
2023/04/21 09:46:59;;;;;;;16.45;10.75;;;17.30;83.90;;;;;;5096283;28;20384;-94
2023/04/21 09:49:29;;;;;;;19.67;10.52;;;17.40;83.20;;;;;;5089365;27;20041;-93
2023/04/21 09:51:59;;;;;;;16.45;10.50;;;17.60;82.20;;;;;;5096377;27;20099;-94
2023/04/21 09:54:30;;;;;;;18.38;10.15;;;17.70;81.80;;;;;;5113235;28;20039;-94
2023/04/21 09:57:00;;;;;;;18.67;11.25;;;17.90;81.30;;;;;;5096795;28;20038;-94
2023/04/21 09:59:31;;;;;;;15.77;9.70;;;18.00;80.00;;;;;;5112257;28;20039;-94
2023/04/21 10:01:59;;;;;;;15.23;9.85;;;18.10;79.40;;;;;;5113142;28;20035;-94
2023/04/21 10:04:27;;;;;;;16.75;9.57;;;18.20;78.00;;;;;;5095380;28;20035;-94
2023/04/21 10:06:54;;;;;;;18.67;9.98;;;18.30;79.00;;;;;;5096617;28;20519;-95
2023/04/21 10:09:23;;;;;;;16.42;10.20;;;18.50;77.10;;;;;;5096564;28;20039;-95
2023/04/21 10:11:50;;;;;;;16.27;9.93;;;18.60;76.40;;;;;;5112490;28;20430;-95
2023/04/21 10:14:15;;;;;;;19.02;11.32;;;18.70;77.10;;;;;;5096818;28;20047;-95
2023/04/21 10:16:41;;;;;;;16.63;10.45;;;18.90;75.40;;;;;;5095592;28;20039;-94
2023/04/21 10:19:24;;;;;;;20.02;10.45;;;18.90;74.40;;;;;;5096288;28;20039;-95
2023/04/21 10:21:50;;;;;;;17.00;10.82;;;19.00;75.40;;;;;;5098719;27;20035;-94
2023/04/21 10:24:15;;;;;;;16.70;10.32;;;19.20;74.10;;;;;;5106971;27;20041;-94
2023/04/21 10:26:41;;;;;;;17.52;10.32;;;19.30;73.50;;;;;;5116109;27;20035;-95
2023/04/21 10:29:08;;;;;;;18.17;10.50;;;19.40;72.90;;;;;;5106831;28;20042;-94
2023/04/21 10:31:53;;;;;;;15.40;10.15;;;19.50;72.50;;;;;;5075543;28;20051;-94
2023/04/21 10:34:40;;;;;;;16.55;10.30;;;19.60;71.70;;;;;;5092737;28;20035;-94
2023/04/21 10:37:06;;;;;;;15.75;10.23;;;19.60;71.00;;;;;;5087537;28;20047;-95
2023/04/21 10:39:37;;;;;;;14.40;10.00;;;19.60;70.60;;;;;;5119703;27;20651;-94
2023/04/21 10:42:35;;;;;;;15.90;10.80;;;19.70;70.60;;;;;;5100639;27;20046;-93
2023/04/21 10:45:06;;;;;;;17.38;10.15;;;19.60;69.50;;;;;;5047368;28;20528;-93
2023/04/21 10:47:47;;;;;;;15.90;10.75;;;19.60;70.30;;;;;;5046454;28;20047;-94
2023/04/21 10:50:19;;;;;;;15.32;10.25;;;19.60;70.30;;;;;;5063255;28;20607;-95
2023/04/21 10:52:54;;;;;;;14.77;10.27;;;19.60;70.30;;;;;;5044994;28;20445;-95
2023/04/21 10:55:21;;;;;;;15.95;10.32;;;19.70;71.50;;;;;;5043998;28;20058;-96
2023/04/21 10:57:47;;;;;;;13.77;10.18;;;19.80;70.70;;;;;;5049857;28;20041;-96
2023/04/21 11:00:21;;;;;;;15.73;10.27;;;19.70;70.60;;;;;;5063590;28;20110;-95
2023/04/21 11:03:01;;;;;;;16.00;10.60;;;19.70;70.10;;;;;;5042214;28;20040;-95
2023/04/21 11:05:39;;;;;;;17.33;10.30;;;19.60;68.60;;;;;;5038714;28;20115;-96
2023/04/21 11:08:10;;;;;;;14.13;9.90;;;19.50;69.10;;;;;;5037825;28;20123;-95
2023/04/21 11:10:45;;;;;;;17.30;9.70;;;19.60;69.90;;;;;;5036088;28;20041;-94
2023/04/21 11:13:10;;;;;;;17.25;9.40;;;19.60;69.40;;;;;;5055784;28;20048;-95
2023/04/21 11:15:36;;;;;;;18.83;9.48;;;19.80;70.00;;;;;;5056634;28;20097;-94
2023/04/21 11:18:02;;;;;;;13.95;9.85;;;19.80;68.60;;;;;;5044468;28;20123;-95
2023/04/21 11:20:28;;;;;;;16.10;9.00;;;19.80;67.90;;;;;;5060894;28;20036;-95
2023/04/21 11:22:55;;;;;;;18.58;9.18;;;19.80;68.00;;;;;;5121084;27;20116;-95
2023/04/21 11:25:21;;;;;;;14.13;9.30;;;19.90;68.40;;;;;;5116831;27;20035;-94
2023/04/21 11:27:58;;;;;;;14.07;9.43;;;19.90;68.50;;;;;;5117130;27;20389;-93
2023/04/21 11:30:34;;;;;;;16.20;9.27;;;20.00;69.40;;;;;;5108979;27;20079;-94
2023/04/21 11:33:00;;;;;;;13.95;9.60;;;20.20;67.90;;;;;;5093204;27;20081;-95
2023/04/21 11:35:26;;;;;;;14.18;8.73;;;20.40;67.50;;;;;;5116340;27;20066;-95
2023/04/21 11:37:51;;;;;;;15.15;8.65;;;20.60;67.00;;;;;;5082158;28;20051;-96
2023/04/21 11:40:17;;;;;;;16.27;9.25;;;20.80;66.60;;;;;;5079424;28;20662;-96
2023/04/21 11:42:43;;;;;;;13.15;8.75;;;21.00;66.60;;;;;;5093755;27;20184;-95
2023/04/21 11:45:17;;;;;;;15.80;8.48;;;21.30;67.00;;;;;;5109446;27;20679;-95
2023/04/21 11:47:42;;;;;;;14.70;7.93;;;21.50;65.10;;;;;;5099654;27;20066;-95
2023/04/21 11:50:09;;;;;;;18.92;9.20;;;21.60;63.50;;;;;;5099027;27;20066;-96
2023/04/21 11:52:40;;;;;;;14.45;7.72;;;21.60;63.70;;;;;;5099867;27;20043;-96
2023/04/21 11:55:19;;;;;;;15.90;8.98;;;21.60;63.70;;;;;;5091112;28;20039;-96
2023/04/21 11:57:45;;;;;;;20.13;9.45;;;21.50;62.30;;;;;;5082329;28;20062;-95
2023/04/21 12:00:14;;;;;;;13.90;7.30;;;21.30;62.20;;;;;;5133087;27;20488;-94
2023/04/21 12:02:40;;;;;;;14.95;8.60;;;21.20;62.40;;;;;;5104850;27;20050;-96
2023/04/21 12:05:08;;;;;;;17.65;8.27;;;21.10;62.20;;;;;;5125028;27;20031;-95
2023/04/21 12:07:41;;;;;;;24.25;7.72;;;21.00;62.20;;;;;;5098409;27;20026;-96
2023/04/21 12:10:16;;;;;;;13.73;7.43;;;20.80;61.60;;;;;;5096354;27;20407;-94
2023/04/21 12:12:42;;;;;;;13.77;7.72;;;20.90;63.10;;;;;;5104955;27;20042;-95
2023/04/21 12:15:10;;;;;;;12.65;7.53;;;21.00;63.50;;;;;;5098293;27;20047;-93
2023/04/21 12:17:44;;;;;;;14.98;7.90;;;21.10;62.40;;;;;;5098913;27;20094;-93
2023/04/21 12:20:10;;;;;;;16.02;7.18;;;21.10;62.40;;;;;;5114842;27;20035;-93
2023/04/21 12:22:36;;;;;;;19.50;7.80;;;21.10;62.50;;;;;;5098749;27;20629;-93
2023/04/21 12:25:01;;;;;;;15.25;7.50;;;21.10;63.10;;;;;;5096334;27;20122;-93
2023/04/21 12:27:27;;;;;;;15.38;7.35;;;21.10;62.80;;;;;;5096913;27;20119;-93
2023/04/21 12:29:53;;;;;;;13.70;7.18;;;21.20;63.10;;;;;;5092281;28;20035;-92
2023/04/21 12:32:20;;;;;;;13.27;7.40;;;21.40;64.00;;;;;;5091608;27;20476;-94